createdAt,value
2022-11-05T06:15:53.718Z,1.30
2022-11-05T06:18:20.796Z,1.35
2022-11-05T06:20:47.726Z,1.73
2022-11-05T06:23:14.699Z,0.50
2022-11-05T06:25:41.702Z,1.83
2022-11-05T06:28:08.785Z,0.88
2022-11-05T06:30:35.718Z,1.05
2022-11-05T06:33:04.549Z,2.08
2022-11-05T06:35:31.900Z,0.73
2022-11-05T06:38:02.261Z,1.13
2022-11-05T06:40:29.751Z,1.30
2022-11-05T06:42:56.754Z,1.13
2022-11-05T06:45:23.958Z,2.95
2022-11-05T06:47:57.110Z,0.82
2022-11-05T06:50:28.957Z,2.05
2022-11-05T06:53:01.426Z,1.83
2022-11-05T06:55:30.074Z,0.95
2022-11-05T06:57:57.750Z,1.27
2022-11-05T07:00:25.170Z,3.00
2022-11-05T07:02:52.114Z,2.17
2022-11-05T07:05:19.256Z,0.82
2022-11-05T07:07:46.355Z,1.88
2022-11-05T07:10:18.679Z,0.90
2022-11-05T07:12:45.886Z,2.13
2022-11-05T07:15:13.675Z,1.90
2022-11-05T07:17:40.940Z,1.08
2022-11-05T07:20:09.348Z,1.58
2022-11-05T07:22:36.834Z,0.95
2022-11-05T07:25:05.653Z,3.05
2022-11-05T07:27:38.839Z,0.50
2022-11-05T07:30:08.706Z,0.90
2022-11-05T07:32:41.904Z,2.67
2022-11-05T07:35:10.043Z,1.55
2022-11-05T07:37:47.854Z,1.40
2022-11-05T07:40:16.287Z,0.80
2022-11-05T07:42:44.244Z,1.30
2022-11-05T07:45:11.980Z,2.50
2022-11-05T07:47:45.098Z,1.10
2022-11-05T07:50:12.004Z,0.90
2022-11-05T07:52:39.014Z,0.70
2022-11-05T07:55:06.496Z,0.75
2022-11-05T07:57:40.027Z,1.00
2022-11-05T08:00:07.799Z,1.20
2022-11-05T08:02:34.832Z,1.70
2022-11-05T08:05:02.105Z,1.80
2022-11-05T08:07:29.020Z,4.63
2022-11-05T08:09:55.911Z,1.17
2022-11-05T08:12:22.880Z,3.90
2022-11-05T08:14:50.793Z,1.92
2022-11-05T08:17:18.685Z,1.52
2022-11-05T08:19:45.738Z,1.00
2022-11-05T08:22:12.688Z,2.25
2022-11-05T08:24:39.618Z,1.13
2022-11-05T08:27:06.589Z,2.25
2022-11-05T08:29:33.584Z,1.27
2022-11-05T08:32:00.529Z,1.90
2022-11-05T08:34:27.412Z,3.38
2022-11-05T08:36:54.495Z,3.90
2022-11-05T08:39:21.383Z,2.35
2022-11-05T08:41:48.503Z,2.42
2022-11-05T08:44:15.673Z,1.73
2022-11-05T08:46:43.027Z,4.07
2022-11-05T08:49:10.041Z,1.88
2022-11-05T08:51:37.054Z,1.15
2022-11-05T08:54:04.314Z,1.58
2022-11-05T08:56:31.258Z,1.58
2022-11-05T08:58:58.188Z,3.67
2022-11-05T09:01:34.253Z,4.13
2022-11-05T09:04:01.596Z,4.30
2022-11-05T09:06:29.989Z,3.15
2022-11-05T09:08:57.096Z,3.70
2022-11-05T09:11:33.141Z,2.20
2022-11-05T09:14:11.090Z,4.70
2022-11-05T09:17:19.229Z,4.32
2022-11-05T09:19:46.512Z,2.97
2022-11-05T09:22:13.787Z,3.42
2022-11-05T09:24:41.744Z,3.97
2022-11-05T09:27:10.460Z,6.57
2022-11-05T09:29:37.855Z,3.65
2022-11-05T09:32:05.137Z,4.55
2022-11-05T09:34:32.527Z,4.13
2022-11-05T09:37:00.119Z,5.68
2022-11-05T09:39:27.103Z,4.60
2022-11-05T09:42:01.212Z,4.32
2022-11-05T09:44:37.763Z,4.45
2022-11-05T09:47:11.357Z,4.63
2022-11-05T09:49:59.114Z,3.05
2022-11-05T09:52:29.524Z,2.30
2022-11-05T09:54:57.792Z,2.78
2022-11-05T09:57:53.359Z,3.70
2022-11-05T10:00:21.084Z,4.10
2022-11-05T10:02:47.938Z,3.15
2022-11-05T10:05:15.992Z,2.20
2022-11-05T10:07:50.847Z,7.30
2022-11-05T10:10:50.938Z,5.45
2022-11-05T10:13:27.815Z,2.65
2022-11-05T10:16:21.635Z,5.40
2022-11-05T10:18:55.070Z,5.10
2022-11-05T10:21:44.291Z,4.63
2022-11-05T10:24:15.141Z,3.50
2022-11-05T10:26:43.460Z,2.47
2022-11-05T10:29:15.522Z,2.03
2022-11-05T10:31:43.891Z,1.27
2022-11-05T10:34:16.919Z,1.13
2022-11-05T10:36:44.482Z,2.97
2022-11-05T10:39:19.430Z,1.60
2022-11-05T10:42:17.322Z,2.17
2022-11-05T10:44:58.777Z,4.53
2022-11-05T10:47:37.868Z,1.60
2022-11-05T10:50:09.701Z,1.60
2022-11-05T10:52:51.897Z,2.63
2022-11-05T10:55:29.583Z,1.70
2022-11-05T10:58:13.333Z,2.50
2022-11-05T11:00:41.297Z,2.15
2022-11-05T11:03:46.804Z,2.88
2022-11-05T11:06:22.448Z,4.93
2022-11-05T11:08:51.314Z,2.22
2022-11-05T11:11:36.655Z,2.17
2022-11-05T11:14:14.111Z,4.05
2022-11-05T11:16:43.919Z,2.45
2022-11-05T11:19:33.950Z,2.72
2022-11-05T11:22:03.834Z,3.38
2022-11-05T11:24:44.098Z,3.60
2022-11-05T11:27:33.332Z,5.35
2022-11-05T11:30:05.543Z,3.25
2022-11-05T11:32:37.294Z,4.55
2022-11-05T11:35:06.702Z,6.38
2022-11-05T11:37:37.329Z,4.82
2022-11-05T11:40:13.263Z,6.43
2022-11-05T11:42:41.583Z,3.03
2022-11-05T11:45:18.625Z,4.60
2022-11-05T11:47:48.935Z,4.90
2022-11-05T11:50:36.821Z,4.00
2022-11-05T11:53:22.058Z,4.90
2022-11-05T11:56:12.582Z,5.05
2022-11-05T11:58:43.471Z,3.28
2022-11-05T12:01:37.940Z,5.07
2022-11-05T12:04:27.254Z,5.75
2022-11-05T12:07:18.577Z,4.30
2022-11-05T12:10:00.251Z,5.97
2022-11-05T12:12:49.891Z,4.85
2022-11-05T12:15:49.774Z,3.67
2022-11-05T12:18:19.443Z,4.63
2022-11-05T12:21:14.350Z,3.90
2022-11-05T12:24:05.739Z,2.33
2022-11-05T12:26:40.898Z,3.72
2022-11-05T12:29:55.147Z,7.20
2022-11-05T12:32:40.658Z,3.42
2022-11-05T12:35:17.133Z,2.85
2022-11-05T12:37:59.124Z,5.72
2022-11-05T12:40:44.655Z,11.32
2022-11-05T12:43:15.989Z,5.90
2022-11-05T12:46:08.796Z,7.20
2022-11-05T12:48:57.840Z,6.13
2022-11-05T12:51:55.960Z,6.00
2022-11-05T12:54:42.005Z,8.25
2022-11-05T12:57:12.606Z,5.72
2022-11-05T12:59:48.592Z,5.18
2022-11-05T13:02:30.669Z,9.77
2022-11-05T13:05:18.044Z,6.97
2022-11-05T13:08:05.201Z,6.97
2022-11-05T13:10:41.262Z,3.53
2022-11-05T13:13:26.136Z,6.75
2022-11-05T13:16:12.420Z,7.25
2022-11-05T13:19:05.638Z,2.45
2022-11-05T13:21:34.451Z,4.53
2022-11-05T13:24:11.936Z,5.82
2022-11-05T13:26:54.337Z,3.05
2022-11-05T13:29:44.377Z,2.75
2022-11-05T13:32:33.386Z,3.35
2022-11-05T13:35:04.346Z,4.50
2022-11-05T13:37:56.203Z,3.65
2022-11-05T13:40:45.047Z,3.25
2022-11-05T13:43:27.810Z,3.50
2022-11-05T13:46:23.551Z,6.68
2022-11-05T13:49:03.471Z,3.08
2022-11-05T13:51:55.242Z,4.55
2022-11-05T13:54:46.850Z,3.45
2022-11-05T13:57:54.601Z,2.10
2022-11-05T14:00:30.048Z,4.18
2022-11-05T14:03:02.520Z,5.00
2022-11-05T14:05:37.470Z,3.42
2022-11-05T14:08:20.904Z,3.30
2022-11-05T14:10:58.855Z,2.60
2022-11-05T14:13:38.739Z,3.22
2022-11-05T14:16:20.781Z,4.40
2022-11-05T14:18:53.999Z,4.32
2022-11-05T14:21:27.013Z,4.70
2022-11-05T14:23:54.342Z,4.82
2022-11-05T14:26:26.778Z,3.83
2022-11-05T14:29:05.871Z,4.68
2022-11-05T14:32:08.296Z,4.95
2022-11-05T14:34:43.968Z,3.13
2022-11-05T14:37:27.612Z,4.55
2022-11-05T14:39:55.783Z,1.15
2022-11-05T14:42:28.994Z,3.20
2022-11-05T14:45:00.621Z,2.90
2022-11-05T14:47:31.941Z,3.05
2022-11-05T14:50:01.309Z,2.22
2022-11-05T14:52:29.077Z,3.03
2022-11-05T14:54:58.627Z,3.38
2022-11-05T14:57:43.874Z,2.28
2022-11-05T15:00:29.372Z,1.67
2022-11-05T15:02:58.984Z,3.35
2022-11-05T15:05:34.732Z,2.85
2022-11-05T15:08:32.315Z,1.05
2022-11-05T15:11:17.552Z,2.22
2022-11-05T15:14:01.146Z,2.00
2022-11-05T15:16:44.996Z,2.88
2022-11-05T15:19:21.353Z,2.33
2022-11-05T15:21:49.423Z,1.38
2022-11-05T15:24:18.676Z,3.53
2022-11-05T15:26:58.635Z,2.30
2022-11-05T15:29:28.939Z,1.95
2022-11-05T15:31:56.417Z,1.55
2022-11-05T15:34:25.587Z,2.53
2022-11-05T15:36:56.167Z,1.10
2022-11-05T15:39:40.338Z,3.20
2022-11-05T15:42:12.827Z,2.72
2022-11-05T15:44:43.628Z,1.98
2022-11-05T15:47:15.208Z,1.40
2022-11-05T15:49:45.109Z,3.22
2022-11-05T15:52:14.804Z,1.40
2022-11-05T15:54:42.767Z,1.38
2022-11-05T15:57:40.084Z,0.75
2022-11-05T16:00:17.858Z,1.73
2022-11-05T16:03:11.418Z,0.80
2022-11-05T16:05:44.039Z,1.75
2022-11-05T16:08:27.428Z,0.95
2022-11-05T16:10:57.977Z,1.10
2022-11-05T16:13:41.330Z,2.22
2022-11-05T16:16:14.231Z,3.90
2022-11-05T16:18:42.860Z,2.75
2022-11-05T16:21:15.415Z,4.47
2022-11-05T16:23:48.438Z,3.60
2022-11-05T16:27:00.433Z,5.07
2022-11-05T16:29:28.057Z,5.63
2022-11-05T16:31:56.812Z,7.75
2022-11-05T16:34:42.095Z,3.35
2022-11-05T16:37:13.607Z,4.60
2022-11-05T16:39:40.873Z,5.97
2022-11-05T16:42:34.159Z,9.63
2022-11-05T16:45:01.064Z,8.05
2022-11-05T16:47:28.056Z,9.90
2022-11-05T16:49:55.087Z,8.00
2022-11-05T16:52:22.208Z,7.82
2022-11-05T16:54:49.205Z,5.35
2022-11-05T16:57:31.715Z,4.30
2022-11-05T17:00:00.277Z,5.68
2022-11-05T17:02:27.956Z,6.18
2022-11-05T17:04:55.015Z,3.85
2022-11-05T17:07:22.051Z,4.65
2022-11-05T17:09:49.252Z,4.13
2022-11-05T17:12:16.308Z,4.28
2022-11-05T17:14:43.204Z,3.03
2022-11-05T17:17:10.822Z,2.45
2022-11-05T17:19:42.413Z,4.40
2022-11-05T17:22:09.742Z,4.13
2022-11-05T17:24:36.777Z,4.28
2022-11-05T17:27:03.725Z,3.42
2022-11-05T17:29:30.643Z,8.90
2022-11-05T17:31:57.718Z,4.53
2022-11-05T17:34:24.587Z,8.70
2022-11-05T17:36:51.827Z,6.40
2022-11-05T17:39:18.737Z,4.03
2022-11-05T17:41:46.236Z,4.15
2022-11-05T17:44:13.157Z,8.25
2022-11-05T17:46:40.036Z,5.95
2022-11-05T17:49:06.953Z,6.60
2022-11-05T17:51:34.681Z,8.32
2022-11-05T17:54:01.614Z,11.65
2022-11-05T17:56:34.464Z,15.35
2022-11-05T17:59:03.948Z,20.75
2022-11-05T18:01:33.615Z,9.57
2022-11-05T18:04:07.262Z,7.30
2022-11-05T18:06:37.362Z,6.50
2022-11-05T18:09:08.773Z,13.43
2022-11-05T18:11:36.436Z,9.27
2022-11-05T18:14:03.900Z,17.13
2022-11-05T18:16:30.862Z,11.48
2022-11-05T18:18:57.785Z,12.98
2022-11-05T18:21:24.742Z,24.83
2022-11-05T18:23:51.725Z,22.48
2022-11-05T18:26:18.782Z,23.10
2022-11-05T18:28:46.244Z,22.70
2022-11-05T18:31:20.612Z,20.58
2022-11-05T18:33:48.975Z,10.25
2022-11-05T18:36:30.603Z,18.52
2022-11-05T18:38:59.135Z,15.10
2022-11-05T18:41:26.282Z,10.13
2022-11-05T18:43:53.207Z,20.20
2022-11-05T18:46:51.643Z,18.80
2022-11-05T18:49:12.997Z,18.23
2022-11-05T18:51:39.909Z,16.85
2022-11-05T18:54:07.499Z,19.45
2022-11-05T18:56:35.735Z,26.63
2022-11-05T18:59:34.658Z,47.65
2022-11-05T19:01:49.737Z,46.55
2022-11-05T19:04:17.272Z,30.95
2022-11-05T19:06:44.585Z,38.22
2022-11-05T19:09:12.162Z,26.05
2022-11-05T19:11:40.483Z,52.22
2022-11-05T19:14:08.034Z,19.98
2022-11-05T19:16:34.998Z,25.88
2022-11-05T19:19:03.990Z,33.03
2022-11-05T19:21:31.399Z,22.25
2022-11-05T19:24:01.474Z,67.45
2022-11-05T19:26:29.512Z,61.95
2022-11-05T19:29:01.839Z,46.25
2022-11-05T19:31:29.591Z,92.68
2022-11-05T19:33:56.691Z,65.68
2022-11-05T19:36:24.808Z,47.17
2022-11-05T19:38:57.794Z,40.25
2022-11-05T19:41:25.994Z,46.88
2022-11-05T19:43:58.171Z,39.90
2022-11-05T19:46:25.939Z,28.38
2022-11-05T19:48:53.327Z,33.70
2022-11-05T19:51:25.339Z,45.35
2022-11-05T19:53:53.819Z,54.05
2022-11-05T19:56:23.279Z,92.53
2022-11-05T19:58:50.734Z,87.88
2022-11-05T20:01:18.978Z,68.90
2022-11-05T20:03:46.747Z,82.68
2022-11-05T20:06:17.160Z,67.22
2022-11-05T20:09:14.846Z,83.15
2022-11-05T20:11:32.217Z,51.60
2022-11-05T20:13:59.219Z,53.58
2022-11-05T20:16:28.973Z,56.05
2022-11-05T20:18:56.970Z,47.75
2022-11-05T20:21:23.888Z,34.33
2022-11-05T20:23:50.867Z,46.50
2022-11-05T20:26:17.822Z,38.75
2022-11-05T20:28:45.688Z,56.97
2022-11-05T20:31:14.862Z,43.92
2022-11-05T20:33:42.687Z,48.22
2022-11-05T20:36:15.942Z,36.35
2022-11-05T20:38:43.111Z,87.78
2022-11-05T20:41:12.631Z,56.97
2022-11-05T20:43:41.171Z,73.60
2022-11-05T20:46:09.964Z,86.97
2022-11-05T20:48:36.975Z,83.47
2022-11-05T20:51:09.641Z,54.25
2022-11-05T20:53:37.025Z,53.38
2022-11-05T20:56:07.767Z,41.72
2022-11-05T20:58:37.030Z,30.48
2022-11-05T21:01:05.613Z,34.17
2022-11-05T21:03:32.759Z,55.67
2022-11-05T21:06:04.289Z,34.90
2022-11-05T21:08:31.493Z,51.88
2022-11-05T21:10:59.078Z,32.35
2022-11-05T21:13:26.661Z,34.42
2022-11-05T21:15:56.718Z,39.50
2022-11-05T21:18:26.240Z,42.53
2022-11-05T21:20:53.309Z,29.20
2022-11-05T21:23:20.800Z,58.33
2022-11-05T21:25:47.798Z,97.72
2022-11-05T21:28:16.312Z,89.43
2022-11-05T21:30:45.903Z,98.53
2022-11-05T21:33:14.354Z,45.53
2022-11-05T21:35:46.809Z,48.15
2022-11-05T21:38:16.239Z,32.15
2022-11-05T21:40:43.465Z,65.18
2022-11-05T21:43:11.036Z,64.63
2022-11-05T21:45:42.232Z,58.92
2022-11-05T21:48:10.157Z,68.82
2022-11-05T21:50:59.871Z,63.78
2022-11-05T21:53:45.408Z,55.58
2022-11-05T21:56:39.580Z,78.40
2022-11-05T21:59:25.088Z,73.82
2022-11-05T22:02:01.376Z,72.80
2022-11-05T22:04:34.203Z,31.58
2022-11-05T22:07:01.361Z,62.10
2022-11-05T22:09:28.906Z,35.33
2022-11-05T22:11:56.147Z,53.15
2022-11-05T22:14:24.285Z,28.95
2022-11-05T22:16:51.310Z,46.20
2022-11-05T22:19:18.647Z,26.85
2022-11-05T22:21:46.175Z,34.45
2022-11-05T22:24:13.291Z,26.30
2022-11-05T22:26:42.090Z,42.85
2022-11-05T22:29:09.696Z,31.95
2022-11-05T22:31:36.980Z,31.02
2022-11-05T22:34:05.762Z,23.77
2022-11-05T22:36:34.092Z,27.10
2022-11-05T22:39:01.415Z,37.50
2022-11-05T22:41:28.413Z,42.42
2022-11-05T22:43:55.907Z,29.52
2022-11-05T22:46:25.687Z,33.45
2022-11-05T22:48:53.467Z,41.63
2022-11-05T22:51:24.726Z,33.45
2022-11-05T22:53:51.998Z,53.03
2022-11-05T22:56:22.633Z,28.15
2022-11-05T22:58:50.319Z,23.38
2022-11-05T23:01:18.869Z,27.38
2022-11-05T23:03:47.999Z,23.60
2022-11-05T23:06:37.630Z,36.45
2022-11-05T23:09:26.316Z,24.05
2022-11-05T23:11:54.027Z,19.02
2022-11-05T23:14:21.237Z,24.38
2022-11-05T23:17:21.341Z,17.50
2022-11-05T23:20:06.887Z,35.60
2022-11-05T23:22:52.491Z,31.30
2022-11-05T23:25:21.453Z,31.07
2022-11-05T23:27:51.192Z,30.60
2022-11-05T23:30:25.593Z,16.73
2022-11-05T23:32:53.570Z,13.90
2022-11-05T23:35:43.153Z,18.90
2022-11-05T23:38:28.565Z,12.68
2022-11-05T23:41:18.265Z,19.75
2022-11-05T23:44:03.945Z,21.13
2022-11-05T23:46:49.645Z,12.30
2022-11-05T23:49:16.719Z,15.77
2022-11-05T23:51:43.718Z,14.25
2022-11-05T23:54:10.876Z,10.93
2022-11-05T23:56:38.016Z,14.70
2022-11-05T23:59:05.383Z,20.45
